sensor_id;sensor_type;location;lat;lon;timestamp;pressure;altitude;pressure_sealevel;temperature;humidity
11710;BME280;5911;51.036;6.972;2022-08-19T00:01:45;100476.13;;;22.65;90.41
11710;BME280;5911;51.036;6.972;2022-08-19T00:04:21;100474.09;;;22.61;90.30
11710;BME280;5911;51.036;6.972;2022-08-19T00:06:50;100473.25;;;22.54;90.24
11710;BME280;5911;51.036;6.972;2022-08-19T00:09:21;100477.59;;;22.61;90.84
11710;BME280;5911;51.036;6.972;2022-08-19T00:11:50;100459.59;;;22.49;90.40
11710;BME280;5911;51.036;6.972;2022-08-19T00:14:18;100479.25;;;22.56;90.45
11710;BME280;5911;51.036;6.972;2022-08-19T00:16:47;100478.00;;;22.52;90.62
11710;BME280;5911;51.036;6.972;2022-08-19T00:19:16;100459.41;;;22.43;90.46
11710;BME280;5911;51.036;6.972;2022-08-19T00:21:44;100477.59;;;22.55;91.04
11710;BME280;5911;51.036;6.972;2022-08-19T00:24:13;100477.59;;;22.55;92.24
11710;BME280;5911;51.036;6.972;2022-08-19T00:26:43;100468.06;;;22.52;92.00
11710;BME280;5911;51.036;6.972;2022-08-19T00:29:13;100461.44;;;22.48;91.17
11710;BME280;5911;51.036;6.972;2022-08-19T00:31:42;100475.91;;;22.47;90.93
11710;BME280;5911;51.036;6.972;2022-08-19T00:34:10;100474.72;;;22.43;90.63
11710;BME280;5911;51.036;6.972;2022-08-19T00:36:39;100484.00;;;22.40;90.57
11710;BME280;5911;51.036;6.972;2022-08-19T00:39:07;100487.72;;;22.39;90.63
11710;BME280;5911;51.036;6.972;2022-08-19T00:41:35;100481.28;;;22.34;91.50
11710;BME280;5911;51.036;6.972;2022-08-19T00:44:07;100473.03;;;22.35;91.98
11710;BME280;5911;51.036;6.972;2022-08-19T00:46:37;100480.47;;;22.33;91.94
11710;BME280;5911;51.036;6.972;2022-08-19T00:49:09;100461.66;;;22.27;92.32
11710;BME280;5911;51.036;6.972;2022-08-19T00:51:42;100463.31;;;22.34;92.69
11710;BME280;5911;51.036;6.972;2022-08-19T00:54:11;100464.34;;;22.33;93.02
11710;BME280;5911;51.036;6.972;2022-08-19T00:56:40;100474.47;;;22.31;93.20
11710;BME280;5911;51.036;6.972;2022-08-19T00:59:10;100469.72;;;22.27;92.92
11710;BME280;5911;51.036;6.972;2022-08-19T01:01:40;100478.63;;;22.27;92.71
11710;BME280;5911;51.036;6.972;2022-08-19T01:04:09;100468.28;;;22.24;92.68
11710;BME280;5911;51.036;6.972;2022-08-19T01:06:38;100461.44;;;22.15;92.63
11710;BME280;5911;51.036;6.972;2022-08-19T01:09:08;100472.38;;;22.20;92.83
11710;BME280;5911;51.036;6.972;2022-08-19T01:11:40;100479.81;;;22.18;92.94
11710;BME280;5911;51.036;6.972;2022-08-19T01:14:11;100476.72;;;22.21;93.20
11710;BME280;5911;51.036;6.972;2022-08-19T01:16:40;100473.41;;;22.19;93.49
11710;BME280;5911;51.036;6.972;2022-08-19T01:19:13;100472.78;;;22.17;93.30
11710;BME280;5911;51.036;6.972;2022-08-19T01:21:47;100473.63;;;22.18;93.63
11710;BME280;5911;51.036;6.972;2022-08-19T01:24:20;100464.09;;;22.08;94.06
11710;BME280;5911;51.036;6.972;2022-08-19T01:26:48;100466.00;;;22.15;93.92
11710;BME280;5911;51.036;6.972;2022-08-19T01:29:16;100467.22;;;22.12;93.66
11710;BME280;5911;51.036;6.972;2022-08-19T01:31:45;100468.03;;;22.06;93.46
11710;BME280;5911;51.036;6.972;2022-08-19T01:34:13;100462.25;;;22.09;93.77
11710;BME280;5911;51.036;6.972;2022-08-19T01:36:43;100461.00;;;22.05;93.77
11710;BME280;5911;51.036;6.972;2022-08-19T01:39:15;100456.03;;;22.02;93.58
11710;BME280;5911;51.036;6.972;2022-08-19T01:41:45;100459.75;;;22.01;93.43
11710;BME280;5911;51.036;6.972;2022-08-19T01:44:14;100460.13;;;21.98;93.64
11710;BME280;5911;51.036;6.972;2022-08-19T01:46:46;100448.53;;;21.91;94.06
11710;BME280;5911;51.036;6.972;2022-08-19T01:49:15;100460.53;;;21.95;94.15
11710;BME280;5911;51.036;6.972;2022-08-19T01:51:43;100458.47;;;21.97;94.84
11710;BME280;5911;51.036;6.972;2022-08-19T01:54:13;100452.06;;;21.98;95.36
11710;BME280;5911;51.036;6.972;2022-08-19T01:56:58;100444.66;;;22.00;95.50
11710;BME280;5911;51.036;6.972;2022-08-19T01:59:27;100444.66;;;22.00;95.13
11710;BME280;5911;51.036;6.972;2022-08-19T02:01:56;100431.81;;;21.95;95.46
11710;BME280;5911;51.036;6.972;2022-08-19T02:04:24;100439.28;;;22.00;95.36
11710;BME280;5911;51.036;6.972;2022-08-19T02:06:52;100437.78;;;21.91;94.87
11710;BME280;5911;51.036;6.972;2022-08-19T02:09:20;100448.34;;;21.92;94.72
11710;BME280;5911;51.036;6.972;2022-08-19T02:11:48;100463.81;;;21.90;94.83
11710;BME280;5911;51.036;6.972;2022-08-19T02:14:17;100462.38;;;21.88;94.92
11710;BME280;5911;51.036;6.972;2022-08-19T02:16:45;100459.03;;;21.86;94.81
11710;BME280;5911;51.036;6.972;2022-08-19T02:19:13;100457.38;;;21.85;95.03
11710;BME280;5911;51.036;6.972;2022-08-19T02:21:41;100453.28;;;21.89;95.58
11710;BME280;5911;51.036;6.972;2022-08-19T02:24:09;100455.13;;;21.88;95.34
11710;BME280;5911;51.036;6.972;2022-08-19T02:26:38;100452.25;;;21.90;95.87
11710;BME280;5911;51.036;6.972;2022-08-19T02:29:07;100461.75;;;21.92;95.98
11710;BME280;5911;51.036;6.972;2022-08-19T02:31:36;100456.59;;;21.91;95.34
11710;BME280;5911;51.036;6.972;2022-08-19T02:34:04;100463.19;;;21.88;95.74
11710;BME280;5911;51.036;6.972;2022-08-19T02:36:32;100460.72;;;21.87;95.80
11710;BME280;5911;51.036;6.972;2022-08-19T02:39:00;100463.00;;;21.83;95.69
11710;BME280;5911;51.036;6.972;2022-08-19T02:41:29;100459.66;;;21.74;95.73
11710;BME280;5911;51.036;6.972;2022-08-19T02:43:59;100462.56;;;21.80;96.28
11710;BME280;5911;51.036;6.972;2022-08-19T02:46:48;100459.03;;;21.86;96.59
11710;BME280;5911;51.036;6.972;2022-08-19T02:49:18;100459.69;;;21.88;96.42
11710;BME280;5911;51.036;6.972;2022-08-19T02:51:47;100476.63;;;21.88;95.85
11710;BME280;5911;51.036;6.972;2022-08-19T02:54:15;100476.41;;;21.83;95.67
11710;BME280;5911;51.036;6.972;2022-08-19T02:56:43;100476.59;;;21.75;95.04
11710;BME280;5911;51.036;6.972;2022-08-19T02:59:11;100460.47;;;21.68;95.58
11710;BME280;5911;51.036;6.972;2022-08-19T03:01:40;100476.38;;;21.76;94.96
11710;BME280;5911;51.036;6.972;2022-08-19T03:04:13;100480.72;;;21.77;95.40
11710;BME280;5911;51.036;6.972;2022-08-19T03:06:45;100479.06;;;21.76;95.44
11710;BME280;5911;51.036;6.972;2022-08-19T03:09:14;100450.31;;;21.64;95.36
11710;BME280;5911;51.036;6.972;2022-08-19T03:11:42;100473.06;;;21.74;95.35
11710;BME280;5911;51.036;6.972;2022-08-19T03:14:10;100465.66;;;21.76;95.42
11710;BME280;5911;51.036;6.972;2022-08-19T03:16:42;100463.75;;;21.70;95.14
11710;BME280;5911;51.036;6.972;2022-08-19T03:19:12;100461.06;;;21.70;95.40
11710;BME280;5911;51.036;6.972;2022-08-19T03:21:42;100469.75;;;21.72;95.73
11710;BME280;5911;51.036;6.972;2022-08-19T03:24:11;100466.03;;;21.67;95.23
11710;BME280;5911;51.036;6.972;2022-08-19T03:26:41;100465.81;;;21.62;95.37
11710;BME280;5911;51.036;6.972;2022-08-19T03:29:09;100467.91;;;21.66;95.05
11710;BME280;5911;51.036;6.972;2022-08-19T03:31:40;100477.38;;;21.62;95.23
11710;BME280;5911;51.036;6.972;2022-08-19T03:34:22;100484.34;;;21.57;95.08
11710;BME280;5911;51.036;6.972;2022-08-19T03:36:53;100481.22;;;21.47;94.83
11710;BME280;5911;51.036;6.972;2022-08-19T03:39:22;100489.31;;;21.53;95.83
11710;BME280;5911;51.036;6.972;2022-08-19T03:41:52;100481.03;;;21.55;95.50
11710;BME280;5911;51.036;6.972;2022-08-19T03:44:43;100487.41;;;21.47;95.57
11710;BME280;5911;51.036;6.972;2022-08-19T03:47:12;100484.34;;;21.50;95.39
11710;BME280;5911;51.036;6.972;2022-08-19T03:49:44;100489.72;;;21.50;95.70
11710;BME280;5911;51.036;6.972;2022-08-19T03:52:12;100490.94;;;21.54;95.79
11710;BME280;5911;51.036;6.972;2022-08-19T03:54:40;100486.41;;;21.55;96.57
11710;BME280;5911;51.036;6.972;2022-08-19T03:57:08;100494.69;;;21.53;96.03
11710;BME280;5911;51.036;6.972;2022-08-19T03:59:37;100485.13;;;21.44;95.75
11710;BME280;5911;51.036;6.972;2022-08-19T04:02:09;100488.44;;;21.46;95.79
11710;BME280;5911;51.036;6.972;2022-08-19T04:04:38;100493.63;;;21.48;95.98
11710;BME280;5911;51.036;6.972;2022-08-19T04:07:08;100493.84;;;21.53;97.13
11710;BME280;5911;51.036;6.972;2022-08-19T04:09:36;100498.41;;;21.52;97.78
11710;BME280;5911;51.036;6.972;2022-08-19T04:12:05;100476.44;;;21.42;97.68
11710;BME280;5911;51.036;6.972;2022-08-19T04:14:34;100500.06;;;21.53;98.45
11710;BME280;5911;51.036;6.972;2022-08-19T04:17:03;100495.94;;;21.57;98.84
11710;BME280;5911;51.036;6.972;2022-08-19T04:19:32;100500.06;;;21.53;98.14
11710;BME280;5911;51.036;6.972;2022-08-19T04:22:01;100488.69;;;21.51;98.43
11710;BME280;5911;51.036;6.972;2022-08-19T04:24:31;100504.16;;;21.56;98.88
11710;BME280;5911;51.036;6.972;2022-08-19T04:27:00;100508.31;;;21.58;98.54
11710;BME280;5911;51.036;6.972;2022-08-19T04:29:28;100501.09;;;21.59;98.42
11710;BME280;5911;51.036;6.972;2022-08-19T04:31:57;100501.69;;;21.54;98.07
11710;BME280;5911;51.036;6.972;2022-08-19T04:34:35;100462.31;;;21.27;98.12
11710;BME280;5911;51.036;6.972;2022-08-19T04:37:24;100506.03;;;21.55;99.25
11710;BME280;5911;51.036;6.972;2022-08-19T04:40:04;100509.75;;;21.54;99.61
11710;BME280;5911;51.036;6.972;2022-08-19T04:42:58;100510.38;;;21.56;99.37
11710;BME280;5911;51.036;6.972;2022-08-19T04:45:27;100509.28;;;21.44;99.15
11710;BME280;5911;51.036;6.972;2022-08-19T04:48:09;100471.44;;;21.32;99.71
11710;BME280;5911;51.036;6.972;2022-08-19T04:50:53;100494.38;;;21.35;98.71
11710;BME280;5911;51.036;6.972;2022-08-19T04:53:24;100520.25;;;21.49;98.61
11710;BME280;5911;51.036;6.972;2022-08-19T04:56:07;100511.13;;;21.44;99.02
11710;BME280;5911;51.036;6.972;2022-08-19T04:58:36;100522.56;;;21.52;98.80
11710;BME280;5911;51.036;6.972;2022-08-19T05:01:05;100511.50;;;21.34;98.23
11710;BME280;5911;51.036;6.972;2022-08-19T05:03:33;100536.38;;;21.49;99.10
11710;BME280;5911;51.036;6.972;2022-08-19T05:06:04;100534.72;;;21.55;98.31
11710;BME280;5911;51.036;6.972;2022-08-19T05:08:34;100536.38;;;21.49;98.81
11710;BME280;5911;51.036;6.972;2022-08-19T05:11:11;100533.50;;;21.57;98.70
11710;BME280;5911;51.036;6.972;2022-08-19T05:13:40;100537.22;;;21.56;99.16
11710;BME280;5911;51.036;6.972;2022-08-19T05:16:10;100534.34;;;21.58;99.34
11710;BME280;5911;51.036;6.972;2022-08-19T05:18:39;100542.63;;;21.63;100.00
11710;BME280;5911;51.036;6.972;2022-08-19T05:21:25;100545.75;;;21.66;100.00
11710;BME280;5911;51.036;6.972;2022-08-19T05:24:10;100556.72;;;21.71;100.00
11710;BME280;5911;51.036;6.972;2022-08-19T05:26:43;100555.28;;;21.75;100.00
11710;BME280;5911;51.036;6.972;2022-08-19T05:29:13;100556.31;;;21.74;100.00
11710;BME280;5911;51.036;6.972;2022-08-19T05:31:41;100550.94;;;21.74;100.00
11710;BME280;5911;51.036;6.972;2022-08-19T05:34:10;100564.22;;;21.83;100.00
11710;BME280;5911;51.036;6.972;2022-08-19T05:36:46;100556.31;;;21.74;100.00
11710;BME280;5911;51.036;6.972;2022-08-19T05:39:19;100556.75;;;21.78;100.00
11710;BME280;5911;51.036;6.972;2022-08-19T05:41:51;100541.03;;;21.75;100.00
11710;BME280;5911;51.036;6.972;2022-08-19T05:44:20;100565.25;;;21.82;100.00
11710;BME280;5911;51.036;6.972;2022-08-19T05:46:48;100560.91;;;21.81;100.00
11710;BME280;5911;51.036;6.972;2022-08-19T05:49:21;100558.03;;;21.82;100.00
11710;BME280;5911;51.036;6.972;2022-08-19T05:51:49;100542.25;;;21.72;100.00
11710;BME280;5911;51.036;6.972;2022-08-19T05:54:18;100562.31;;;21.76;100.00
11710;BME280;5911;51.036;6.972;2022-08-19T05:56:46;100561.94;;;21.80;100.00
11710;BME280;5911;51.036;6.972;2022-08-19T05:59:17;100561.72;;;21.81;100.00
11710;BME280;5911;51.036;6.972;2022-08-19T06:01:47;100495.63;;;21.39;100.00
11710;BME280;5911;51.036;6.972;2022-08-19T06:04:18;100560.06;;;21.80;100.00
11710;BME280;5911;51.036;6.972;2022-08-19T06:06:51;100556.38;;;21.81;100.00
11710;BME280;5911;51.036;6.972;2022-08-19T06:09:20;100551.78;;;21.75;100.00
11710;BME280;5911;51.036;6.972;2022-08-19T06:11:50;100555.94;;;21.77;100.00
11710;BME280;5911;51.036;6.972;2022-08-19T06:14:24;100560.72;;;21.89;100.00
11710;BME280;5911;51.036;6.972;2022-08-19T06:16:53;100548.09;;;21.83;100.00
11710;BME280;5911;51.036;6.972;2022-08-19T06:19:22;100546.03;;;21.85;100.00
11710;BME280;5911;51.036;6.972;2022-08-19T06:21:53;100546.25;;;21.90;100.00
11710;BME280;5911;51.036;6.972;2022-08-19T06:24:23;100524.53;;;21.78;100.00
11710;BME280;5911;51.036;6.972;2022-08-19T06:26:52;100552.06;;;21.93;100.00
11710;BME280;5911;51.036;6.972;2022-08-19T06:29:29;100534.06;;;21.81;100.00
11710;BME280;5911;51.036;6.972;2022-08-19T06:32:00;100549.56;;;21.92;100.00
11710;BME280;5911;51.036;6.972;2022-08-19T06:34:33;100535.28;;;21.85;100.00
11710;BME280;5911;51.036;6.972;2022-08-19T06:37:02;100438.72;;;21.16;100.00
11710;BME280;5911;51.036;6.972;2022-08-19T06:39:34;100515.00;;;21.75;100.00
11710;BME280;5911;51.036;6.972;2022-08-19T06:42:03;100542.97;;;21.94;100.00
11710;BME280;5911;51.036;6.972;2022-08-19T06:44:40;100547.75;;;21.99;100.00
11710;BME280;5911;51.036;6.972;2022-08-19T06:47:16;100552.75;;;22.02;100.00
11710;BME280;5911;51.036;6.972;2022-08-19T06:49:54;100540.69;;;21.91;100.00
11710;BME280;5911;51.036;6.972;2022-08-19T06:52:29;100562.66;;;22.01;100.00
11710;BME280;5911;51.036;6.972;2022-08-19T06:55:00;100558.13;;;22.02;100.00
11710;BME280;5911;51.036;6.972;2022-08-19T06:57:32;100558.50;;;21.99;100.00
11710;BME280;5911;51.036;6.972;2022-08-19T07:00:05;100556.44;;;22.01;100.00
11710;BME280;5911;51.036;6.972;2022-08-19T07:02:39;100565.97;;;22.03;100.00
11710;BME280;5911;51.036;6.972;2022-08-19T07:05:09;100569.69;;;22.02;100.00
11710;BME280;5911;51.036;6.972;2022-08-19T07:07:39;100547.69;;;21.86;100.00
11710;BME280;5911;51.036;6.972;2022-08-19T07:10:13;100569.50;;;22.04;100.00
11710;BME280;5911;51.036;6.972;2022-08-19T07:12:42;100573.03;;;22.11;100.00
11710;BME280;5911;51.036;6.972;2022-08-19T07:15:12;100571.34;;;22.03;100.00
11710;BME280;5911;51.036;6.972;2022-08-19T07:17:44;100580.47;;;22.09;100.00
11710;BME280;5911;51.036;6.972;2022-08-19T07:20:18;100586.28;;;22.19;100.00
11710;BME280;5911;51.036;6.972;2022-08-19T07:22:46;100582.19;;;22.23;100.00
11710;BME280;5911;51.036;6.972;2022-08-19T07:25:15;100588.78;;;22.21;100.00
11710;BME280;5911;51.036;6.972;2022-08-19T07:27:44;100593.94;;;22.22;100.00
11710;BME280;5911;51.036;6.972;2022-08-19T07:30:21;100588.59;;;22.22;100.00
11710;BME280;5911;51.036;6.972;2022-08-19T07:32:52;100598.31;;;22.23;100.00
11710;BME280;5911;51.036;6.972;2022-08-19T07:35:20;100601.81;;;22.24;100.00
11710;BME280;5911;51.036;6.972;2022-08-19T07:37:48;100575.84;;;21.96;100.00
11710;BME280;5911;51.036;6.972;2022-08-19T07:40:16;100602.41;;;22.19;100.00
11710;BME280;5911;51.036;6.972;2022-08-19T07:42:44;100606.13;;;22.18;100.00
11710;BME280;5911;51.036;6.972;2022-08-19T07:45:12;100613.16;;;22.19;100.00
11710;BME280;5911;51.036;6.972;2022-08-19T07:47:41;100618.78;;;22.24;100.00
11710;BME280;5911;51.036;6.972;2022-08-19T07:50:19;100618.16;;;22.22;100.00
11710;BME280;5911;51.036;6.972;2022-08-19T07:52:48;100625.56;;;22.20;100.00
11710;BME280;5911;51.036;6.972;2022-08-19T07:55:18;100618.97;;;22.23;100.00
11710;BME280;5911;51.036;6.972;2022-08-19T07:58:09;100626.84;;;22.24;100.00
11710;BME280;5911;51.036;6.972;2022-08-19T08:00:37;100616.09;;;22.24;100.00
11710;BME280;5911;51.036;6.972;2022-08-19T08:03:07;100511.19;;;21.50;100.00
11710;BME280;5911;51.036;6.972;2022-08-19T08:05:36;100631.63;;;22.35;100.00
11710;BME280;5911;51.036;6.972;2022-08-19T08:08:21;100633.91;;;22.38;100.00
11710;BME280;5911;51.036;6.972;2022-08-19T08:11:10;100643.25;;;22.42;100.00
11710;BME280;5911;51.036;6.972;2022-08-19T08:13:41;100642.63;;;22.40;100.00
11710;BME280;5911;51.036;6.972;2022-08-19T08:16:09;100638.03;;;22.34;100.00
11710;BME280;5911;51.036;6.972;2022-08-19T08:18:41;100650.88;;;22.39;100.00
11710;BME280;5911;51.036;6.972;2022-08-19T08:21:18;100638.66;;;22.36;100.00
11710;BME280;5911;51.036;6.972;2022-08-19T08:23:46;100646.75;;;22.43;100.00
11710;BME280;5911;51.036;6.972;2022-08-19T08:26:14;100643.06;;;22.51;100.00
11710;BME280;5911;51.036;6.972;2022-08-19T08:28:44;100636.00;;;22.50;100.00
11710;BME280;5911;51.036;6.972;2022-08-19T08:31:15;100638.13;;;22.61;100.00
11710;BME280;5911;51.036;6.972;2022-08-19T08:33:47;100641.41;;;22.63;100.00
11710;BME280;5911;51.036;6.972;2022-08-19T08:36:15;100647.03;;;22.68;100.00
11710;BME280;5911;51.036;6.972;2022-08-19T08:38:44;100646.63;;;22.71;100.00
11710;BME280;5911;51.036;6.972;2022-08-19T08:41:19;100631.91;;;22.67;100.00
11710;BME280;5911;51.036;6.972;2022-08-19T08:43:51;100644.59;;;22.79;100.00
11710;BME280;5911;51.036;6.972;2022-08-19T08:46:24;100641.94;;;22.86;100.00
11710;BME280;5911;51.036;6.972;2022-08-19T08:49:03;100648.75;;;22.95;100.00
11710;BME280;5911;51.036;6.972;2022-08-19T08:51:40;100604.03;;;22.81;100.00
11710;BME280;5911;51.036;6.972;2022-08-19T08:54:17;100628.28;;;23.07;100.00
11710;BME280;5911;51.036;6.972;2022-08-19T08:56:46;100639.06;;;23.14;100.00
11710;BME280;5911;51.036;6.972;2022-08-19T08:59:21;100639.25;;;23.26;100.00
11710;BME280;5911;51.036;6.972;2022-08-19T09:01:50;100633.25;;;23.37;100.00
11710;BME280;5911;51.036;6.972;2022-08-19T09:04:20;100639.88;;;23.47;99.58
11710;BME280;5911;51.036;6.972;2022-08-19T09:06:55;100637.44;;;23.53;98.79
11710;BME280;5911;51.036;6.972;2022-08-19T09:09:51;100638.22;;;23.53;98.44
11710;BME280;5911;51.036;6.972;2022-08-19T09:12:25;100635.94;;;23.63;98.07
11710;BME280;5911;51.036;6.972;2022-08-19T09:15:02;100631.19;;;23.65;96.69
11710;BME280;5911;51.036;6.972;2022-08-19T09:17:31;100635.50;;;23.73;95.51
11710;BME280;5911;51.036;6.972;2022-08-19T09:20:06;100641.69;;;23.87;94.49
11710;BME280;5911;51.036;6.972;2022-08-19T09:22:35;100639.81;;;23.94;94.60
11710;BME280;5911;51.036;6.972;2022-08-19T09:25:05;100640.44;;;23.96;93.24
11710;BME280;5911;51.036;6.972;2022-08-19T09:27:36;100629.88;;;23.94;92.32
11710;BME280;5911;51.036;6.972;2022-08-19T09:30:13;100645.63;;;23.91;91.85
11710;BME280;5911;51.036;6.972;2022-08-19T09:32:42;100644.38;;;23.87;90.34
11710;BME280;5911;51.036;6.972;2022-08-19T09:35:14;100635.69;;;23.84;90.50
11710;BME280;5911;51.036;6.972;2022-08-19T09:37:42;100640.66;;;23.88;90.35
11710;BME280;5911;51.036;6.972;2022-08-19T09:40:11;100633.84;;;23.78;90.21
11710;BME280;5911;51.036;6.972;2022-08-19T09:42:41;100641.50;;;23.81;90.09
11710;BME280;5911;51.036;6.972;2022-08-19T09:45:18;100647.28;;;23.85;88.57
11710;BME280;5911;51.036;6.972;2022-08-19T09:47:48;100643.16;;;23.82;87.73
11710;BME280;5911;51.036;6.972;2022-08-19T09:50:22;100645.88;;;23.82;87.46
11710;BME280;5911;51.036;6.972;2022-08-19T09:52:50;100642.72;;;23.92;87.34
11710;BME280;5911;51.036;6.972;2022-08-19T09:55:24;100639.41;;;23.97;86.44
11710;BME280;5911;51.036;6.972;2022-08-19T09:58:00;100634.56;;;24.12;86.24
11710;BME280;5911;51.036;6.972;2022-08-19T10:00:29;100638.94;;;24.13;84.53
11710;BME280;5911;51.036;6.972;2022-08-19T10:02:58;100640.19;;;24.04;83.91
11710;BME280;5911;51.036;6.972;2022-08-19T10:05:28;100639.56;;;24.02;84.15
11710;BME280;5911;51.036;6.972;2022-08-19T10:08:16;100601.31;;;23.80;82.33
11710;BME280;5911;51.036;6.972;2022-08-19T10:10:47;100642.06;;;24.03;81.46
11710;BME280;5911;51.036;6.972;2022-08-19T10:13:17;100633.53;;;24.13;82.37
11710;BME280;5911;51.036;6.972;2022-08-19T10:15:46;100601.03;;;23.95;81.57
11710;BME280;5911;51.036;6.972;2022-08-19T10:18:19;100634.75;;;24.24;80.98
11710;BME280;5911;51.036;6.972;2022-08-19T10:20:50;100633.72;;;24.25;79.50
11710;BME280;5911;51.036;6.972;2022-08-19T10:23:19;100626.03;;;24.28;78.51
11710;BME280;5911;51.036;6.972;2022-08-19T10:25:47;100630.75;;;24.39;78.30
11710;BME280;5911;51.036;6.972;2022-08-19T10:28:16;100627.78;;;24.47;77.63
11710;BME280;5911;51.036;6.972;2022-08-19T10:30:45;100627.81;;;24.79;76.91
11710;BME280;5911;51.036;6.972;2022-08-19T10:33:13;100633.44;;;25.09;74.90
11710;BME280;5911;51.036;6.972;2022-08-19T10:36:05;100638.56;;;25.42;72.28
11710;BME280;5911;51.036;6.972;2022-08-19T10:38:34;100630.69;;;25.83;71.80
11710;BME280;5911;51.036;6.972;2022-08-19T10:41:08;100619.56;;;26.10;69.77
11710;BME280;5911;51.036;6.972;2022-08-19T10:43:36;100622.78;;;26.18;69.38
11710;BME280;5911;51.036;6.972;2022-08-19T10:46:07;100633.38;;;26.02;68.20
11710;BME280;5911;51.036;6.972;2022-08-19T10:48:43;100616.59;;;25.81;69.03
11710;BME280;5911;51.036;6.972;2022-08-19T10:51:12;100613.56;;;25.71;68.47
11710;BME280;5911;51.036;6.972;2022-08-19T10:53:58;100620.44;;;25.67;69.22
11710;BME280;5911;51.036;6.972;2022-08-19T10:56:26;100616.81;;;25.55;69.83
11710;BME280;5911;51.036;6.972;2022-08-19T10:59:12;100612.19;;;25.37;68.78
11710;BME280;5911;51.036;6.972;2022-08-19T11:01:42;100618.44;;;25.38;69.54
11710;BME280;5911;51.036;6.972;2022-08-19T11:04:10;100613.56;;;25.89;68.13
11710;BME280;5911;51.036;6.972;2022-08-19T11:06:41;100611.63;;;25.97;66.21
11710;BME280;5911;51.036;6.972;2022-08-19T11:09:10;100618.38;;;26.06;66.04
11710;BME280;5911;51.036;6.972;2022-08-19T11:11:39;100608.28;;;26.13;67.14
11710;BME280;5911;51.036;6.972;2022-08-19T11:14:07;100619.06;;;26.49;64.06
11710;BME280;5911;51.036;6.972;2022-08-19T11:16:36;100623.25;;;26.63;62.58
11710;BME280;5911;51.036;6.972;2022-08-19T11:19:06;100616.81;;;26.28;63.81
11710;BME280;5911;51.036;6.972;2022-08-19T11:21:39;100608.00;;;26.03;64.81
11710;BME280;5911;51.036;6.972;2022-08-19T11:24:11;100607.25;;;26.74;62.82
11710;BME280;5911;51.036;6.972;2022-08-19T11:26:43;100611.25;;;27.24;60.33
11710;BME280;5911;51.036;6.972;2022-08-19T11:29:15;100613.88;;;27.66;58.74
11710;BME280;5911;51.036;6.972;2022-08-19T11:31:46;100614.19;;;27.81;57.46
11710;BME280;5911;51.036;6.972;2022-08-19T11:34:17;100617.63;;;27.88;56.17
11710;BME280;5911;51.036;6.972;2022-08-19T11:36:47;100615.31;;;28.20;55.50
11710;BME280;5911;51.036;6.972;2022-08-19T11:39:18;100616.75;;;28.51;53.83
11710;BME280;5911;51.036;6.972;2022-08-19T11:41:47;100608.19;;;28.59;53.43
11710;BME280;5911;51.036;6.972;2022-08-19T11:44:15;100621.44;;;29.01;52.57
11710;BME280;5911;51.036;6.972;2022-08-19T11:46:44;100618.50;;;29.02;51.25
11710;BME280;5911;51.036;6.972;2022-08-19T11:49:16;100617.97;;;29.22;51.69
11710;BME280;5911;51.036;6.972;2022-08-19T11:51:46;100599.97;;;29.16;50.97
11710;BME280;5911;51.036;6.972;2022-08-19T11:54:16;100603.97;;;29.30;49.04
11710;BME280;5911;51.036;6.972;2022-08-19T11:56:46;100607.63;;;29.02;50.92
11710;BME280;5911;51.036;6.972;2022-08-19T11:59:15;100599.38;;;29.14;51.06
11710;BME280;5911;51.036;6.972;2022-08-19T12:01:45;100619.44;;;28.51;50.98
11710;BME280;5911;51.036;6.972;2022-08-19T12:04:13;100617.00;;;28.95;49.62
11710;BME280;5911;51.036;6.972;2022-08-19T12:06:44;100609.41;;;29.30;47.93
11710;BME280;5911;51.036;6.972;2022-08-19T12:09:11;100609.22;;;29.54;47.10
11710;BME280;5911;51.036;6.972;2022-08-19T12:11:42;100607.75;;;29.63;46.54
11710;BME280;5911;51.036;6.972;2022-08-19T12:14:12;100604.22;;;29.84;45.64
11710;BME280;5911;51.036;6.972;2022-08-19T12:16:45;100616.84;;;29.95;45.40
11710;BME280;5911;51.036;6.972;2022-08-19T12:19:21;100608.78;;;30.22;44.76
11710;BME280;5911;51.036;6.972;2022-08-19T12:21:51;100604.09;;;30.18;44.55
11710;BME280;5911;51.036;6.972;2022-08-19T12:24:30;100608.84;;;30.27;43.86
11710;BME280;5911;51.036;6.972;2022-08-19T12:27:03;100598.59;;;30.34;44.22
11710;BME280;5911;51.036;6.972;2022-08-19T12:29:38;100604.81;;;30.57;44.14
11710;BME280;5911;51.036;6.972;2022-08-19T12:32:14;100604.56;;;30.85;43.19
11710;BME280;5911;51.036;6.972;2022-08-19T12:34:43;100603.31;;;30.98;42.93
11710;BME280;5911;51.036;6.972;2022-08-19T12:37:13;100595.13;;;30.98;42.93
11710;BME280;5911;51.036;6.972;2022-08-19T12:39:41;100599.06;;;31.12;43.00
11710;BME280;5911;51.036;6.972;2022-08-19T12:42:13;100598.75;;;31.08;42.65
11710;BME280;5911;51.036;6.972;2022-08-19T12:44:42;100594.19;;;31.14;42.37
11710;BME280;5911;51.036;6.972;2022-08-19T12:47:12;100592.13;;;31.31;42.41
11710;BME280;5911;51.036;6.972;2022-08-19T12:49:41;100599.72;;;31.24;41.46
11710;BME280;5911;51.036;6.972;2022-08-19T12:52:22;100591.78;;;31.23;41.49
11710;BME280;5911;51.036;6.972;2022-08-19T12:54:52;100597.50;;;31.21;41.17
11710;BME280;5911;51.036;6.972;2022-08-19T12:57:27;100588.88;;;31.02;40.97
11710;BME280;5911;51.036;6.972;2022-08-19T13:00:07;100596.94;;;31.19;40.84
11710;BME280;5911;51.036;6.972;2022-08-19T13:02:40;100592.34;;;31.25;40.58
11710;BME280;5911;51.036;6.972;2022-08-19T13:05:17;100584.75;;;30.95;41.17
11710;BME280;5911;51.036;6.972;2022-08-19T13:07:54;100588.78;;;30.92;40.36
11710;BME280;5911;51.036;6.972;2022-08-19T13:10:24;100582.09;;;31.05;40.20
11710;BME280;5911;51.036;6.972;2022-08-19T13:12:56;100578.91;;;31.13;39.65
11710;BME280;5911;51.036;6.972;2022-08-19T13:15:26;100577.84;;;31.19;40.05
11710;BME280;5911;51.036;6.972;2022-08-19T13:17:55;100569.13;;;30.85;39.87
11710;BME280;5911;51.036;6.972;2022-08-19T13:20:26;100573.88;;;31.00;40.36